Erick, Oklahoma
Current Conditions -  °F | °C
As of 11:00 AM on Thursday 18 Dec 2014 (Local Time) from KCSM Reporting Station
Overcast Overcast  
Wind Chill: 38°   Ceiling: 500
Heat Index: 42°   Visibility: 10mi
Dew Point: 38°   Wind: 7mph
Humidity: 85%   Direction: 70°ENE
Pressure: 30.17"   Gusts: NA
Location:  35.22°N, 99.87°W
Report Text: KCSM 181700Z 07006KT 10SM BKN005 OVC024 06/03 A3017 RMK AO2 CIG 004V008 T00560033
Loading
Personal Weather Stations






























Interactive Weather Map New forecast layout! Learn more

10-Day Weather Forecast

Advertisements
Track Severe Weather on mobile